Flight Track Log - Related Links

Times and Time Zones

All times are in EDT time to prevent confusion due to time zone crossing. See the CPT8773 flight status page for this flight to view local times or setup timezone preferences in your user account.

Time Position Orientation Groundspeed Altitude Reporting Facility
EDT Latitude Longitude Course Direction KTS MPH feet Rate Location/Type
Tue 09:31:08 AM 43.0189 -106.4875 349° North 122 140 7,800  Level Salt Lake Center
Tue 09:32:09 AM 43.0442 -106.5281 310° West 124 143 8,400 590 Climbing Salt Lake Center
Tue 09:33:10 AM 43.0675 -106.5633 312° West 127 146 9,000 541 Climbing Salt Lake Center
Tue 09:34:11 AM 43.0911 -106.5978 313° West 129 148 9,500 590 Climbing Salt Lake Center
Tue 09:35:00 AM 43.0557 -106.6896 307° West  Level Estimated
Tue 09:35:12 AM 43.1142 -106.6411 306° West 128 147 10,200  Level Salt Lake Center
Tue 09:36:00 AM 43.0919 -106.6991 349° North  Level FlightAware Approximate
Tue 09:36:13 AM 43.1358 -106.6758 311° West 126 145 10,600  Level Salt Lake Center
Tue 09:37:15 AM 43.1614 -106.7100 316° Northwest 131 151 11,000 390 Climbing Salt Lake Center
Tue 09:38:16 AM 43.1875 -106.7533 310° West 133 153 11,400 344 Climbing Salt Lake Center
Tue 09:39:17 AM 43.2125 -106.7878 315° West 134 154 11,700 344 Climbing Salt Lake Center
Tue 09:40:18 AM 43.2397 -106.8292 312° West 131 151 12,100 197 Climbing Salt Lake Center
Tue 09:41:19 AM 43.2622 -106.8647 311° West 130 150 12,100 -49 Level Salt Lake Center
Tue 09:42:20 AM 43.2867 -106.9019 312° West 135 155 12,000 -49 Descending Salt Lake Center
Tue 09:43:21 AM 43.3125 -106.9447 310° West 134 154 12,000  Level Salt Lake Center
Tue 09:44:23 AM 43.3358 -106.9822 311° West 129 148 12,000  Level Salt Lake Center
Tue 09:45:24 AM 43.3594 -107.0183 312° West 129 148 12,000  Level Salt Lake Center
Tue 09:46:25 AM 43.3842 -107.0553 313° West 131 151 12,000  Level Salt Lake Center
Tue 09:47:26 AM 43.4069 -107.0914 311° West 127 146 12,000  Level Salt Lake Center
Tue 09:48:28 AM 43.4286 -107.1256 311° West 120 138 12,000  Level Salt Lake Center
Tue 09:49:29 AM 43.4511 -107.1631 310° West 124 143 12,000  Level Salt Lake Center
Tue 09:50:30 AM 43.4756 -107.1953 316° Northwest 124 143 12,000  Level Salt Lake Center
Tue 09:51:31 AM 43.5022 -107.2372 311° West 121 139 12,000  Level Salt Lake Center
Tue 09:52:32 AM 43.5239 -107.2728 310° West 121 139 12,000  Level Salt Lake Center
Tue 09:53:34 AM 43.5481 -107.3072 314° West 124 143 12,000 -49 Level Salt Lake Center
Tue 09:54:35 AM 43.5703 -107.3428 311° West 123 142 11,900 -246 Descending Salt Lake Center
Tue 09:55:36 AM 43.5958 -107.3825 312° West 132 152 11,500 -341 Descending Salt Lake Center
Tue 09:56:38 AM 43.6200 -107.4258 308° West 140 161 11,200 -244 Descending Salt Lake Center
Tue 09:57:39 AM 43.6436 -107.4675 308° West 139 160 11,000 -197 Descending Salt Lake Center
Tue 09:58:40 AM 43.6700 -107.5111 310° West 142 163 10,800 -197 Descending Salt Lake Center
Tue 09:59:41 AM 43.6950 -107.5550 308° West 144 166 10,600 -146 Descending Salt Lake Center
Tue 10:00:43 AM 43.7219 -107.5994 310° West 147 169 10,500 -49 Descending Salt Lake Center
Tue 10:01:44 AM 43.7494 -107.6517 306° West 145 167 10,500  Level Salt Lake Center
Tue 10:02:45 AM 43.7733 -107.6950 307° West 143 165 10,500  Level Salt Lake Center
Tue 10:03:47 AM 43.7989 -107.7389 309° West 144 166 10,500  Level Salt Lake Center
Tue 10:04:48 AM 43.8247 -107.7819 310° West 145 167 10,500  Level Salt Lake Center
Tue 10:05:50 AM 43.8486 -107.8244 308° West 144 166 10,500  Level Salt Lake Center
Tue 10:06:51 AM 43.8719 -107.8667 307° West 141 162 10,500  Level Salt Lake Center
Tue 10:07:52 AM 43.8958 -107.9061 310° West 138 159 10,500  Level Salt Lake Center
Tue 10:08:54 AM 43.9192 -107.9492 307° West 137 158 10,500  Level Salt Lake Center
Tue 10:09:55 AM 43.9436 -107.9925 308° West 139 160 10,500  Level Salt Lake Center
Tue 10:10:57 AM 43.9750 -108.0467 309° West 145 167 10,500  Level Salt Lake Center
Tue 10:11:58 AM 44.0017 -108.0939 308° West 149 171 10,500  Level Salt Lake Center
Tue 10:13:00 AM 44.0272 -108.1383 309° West 150 173 10,500  Level Salt Lake Center
Tue 10:14:01 AM 44.0517 -108.1817 308° West 147 169 10,500  Level Salt Lake Center
Tue 10:15:02 AM 44.0753 -108.2236 308° West 143 165 10,500  Level Salt Lake Center
Tue 10:16:04 AM 44.0992 -108.2667 308° West 141 162 10,500  Level Salt Lake Center
Tue 10:17:05 AM 44.1219 -108.3089 307° West 139 160 10,500  Level Salt Lake Center
Tue 10:18:07 AM 44.1456 -108.3494 309° West 138 159 10,500  Level Salt Lake Center
Tue 10:19:08 AM 44.1692 -108.3917 308° West 137 158 10,500 -98 Level Salt Lake Center
Tue 10:20:10 AM 44.1989 -108.4442 308° West 140 161 10,300 -194 Descending Salt Lake Center
Tue 10:21:12 AM 44.2242 -108.4886 308° West 143 165 10,100 -244 Descending Salt Lake Center
Tue 10:22:13 AM 44.2494 -108.5319 309° West 144 166 9,800 -244 Descending Salt Lake Center
Tue 10:23:15 AM 44.2725 -108.5769 306° West 143 165 9,600 -244 Descending Salt Lake Center
Tue 10:24:16 AM 44.2975 -108.6208 309° West 144 166 9,300 -293 Descending Salt Lake Center
Tue 10:25:18 AM 44.3228 -108.6650 309° West 145 167 9,000 -242 Descending Salt Lake Center
Tue 10:26:20 AM 44.3481 -108.7125 307° West 147 169 8,800 -195 Descending Salt Lake Center
Tue 10:27:21 AM 44.3747 -108.7594 308° West 150 173 8,600 -146 Descending Salt Lake Center
Tue 10:28:23 AM 44.4053 -108.8150 308° West 151 174 8,500 -48 Descending Salt Lake Center
Tue 10:29:25 AM 44.4306 -108.8619 307° West 151 174 8,500  Level Salt Lake Center

Login

Don't have an account? Register now (free) for customized features, flight alerts, and more!